Time;durP1;ratioP1;P1;durP2;ratioP2;P2;SDS_P1;SDS_P2;PMS_P1;PMS_P2;Temp;Humidity;BMP_temperature;BMP_pressure;BME280_temperature;BME280_humidity;BME280_pressure;Samples;Min_cycle;Max_cycle;Signal;HPM_P1;HPM_P2
2022/10/26 00:02:03;;;;;;;5.13;3.83;;;;;;;12.75;100.00;154635.50;4998287;28;20952;-76
2022/10/26 00:04:30;;;;;;;5.53;3.10;;;;;;;12.73;100.00;154629.00;5015108;28;20548;-75
2022/10/26 00:06:56;;;;;;;3.93;3.53;;;;;;;12.73;100.00;154629.00;5028697;28;20443;-76
2022/10/26 00:09:23;;;;;;;5.53;3.80;;;;;;;12.72;100.00;154626.41;5016234;28;20469;-75
2022/10/26 00:11:50;;;;;;;5.73;4.03;;;;;;;12.73;100.00;154629.00;5015467;28;20460;-76
2022/10/26 00:14:16;;;;;;;4.53;3.73;;;;;;;12.72;100.00;154626.41;5011764;28;20474;-76
2022/10/26 00:16:44;;;;;;;4.27;3.70;;;;;;;12.70;100.00;154622.53;5008036;28;21054;-76
2022/10/26 00:19:11;;;;;;;3.93;3.53;;;;;;;12.68;100.00;154617.31;5015349;28;20873;-76
2022/10/26 00:21:38;;;;;;;7.10;3.23;;;;;;;12.68;100.00;154616.03;5014672;28;21083;-75
2022/10/26 00:24:05;;;;;;;4.27;3.37;;;;;;;12.68;100.00;154616.03;5004467;28;20507;-75
2022/10/26 00:26:31;;;;;;;4.60;3.27;;;;;;;12.68;100.00;154617.31;5033396;28;20498;-75
2022/10/26 00:28:58;;;;;;;4.50;3.57;;;;;;;12.68;100.00;154617.31;4994620;28;20457;-76
2022/10/26 00:31:25;;;;;;;5.73;3.87;;;;;;;12.68;100.00;154616.03;5015213;28;20421;-75
2022/10/26 00:33:54;;;;;;;6.63;3.53;;;;;;;12.68;100.00;154617.31;5029493;28;20462;-75
2022/10/26 00:36:20;;;;;;;3.77;3.37;;;;;;;12.69;100.00;154619.91;5027434;28;20560;-76
2022/10/26 00:38:49;;;;;;;4.60;3.20;;;;;;;12.71;100.00;154625.09;5014476;28;20455;-75
2022/10/26 00:41:16;;;;;;;5.40;3.90;;;;;;;12.71;100.00;154625.09;5013558;28;20447;-75
2022/10/26 00:43:43;;;;;;;4.30;3.30;;;;;;;12.74;100.00;154631.56;5014371;28;20476;-76
2022/10/26 00:46:12;;;;;;;4.03;3.27;;;;;;;12.75;100.00;154634.19;5013902;28;20432;-76
2022/10/26 00:48:42;;;;;;;3.47;3.13;;;;;;;12.75;100.00;154634.19;5013073;28;20437;-76
2022/10/26 00:51:13;;;;;;;4.67;3.60;;;;;;;12.75;100.00;154634.19;5020884;28;20886;-76
2022/10/26 00:53:40;;;;;;;5.93;3.67;;;;;;;12.77;100.00;154639.38;5034869;28;20491;-75
2022/10/26 00:56:07;;;;;;;8.30;3.70;;;;;;;12.78;100.00;154641.97;5005557;28;20963;-75
2022/10/26 00:58:34;;;;;;;4.20;3.50;;;;;;;12.80;100.00;154647.16;4996012;28;20953;-76
2022/10/26 01:01:01;;;;;;;7.40;4.07;;;;;;;12.80;100.00;154647.16;5011243;28;20448;-76
2022/10/26 01:03:30;;;;;;;6.03;3.70;;;;;;;12.82;100.00;154652.31;4999628;28;20513;-75
2022/10/26 01:05:57;;;;;;;3.70;3.07;;;;;;;12.82;100.00;154653.63;5011076;28;20484;-76
2022/10/26 01:08:27;;;;;;;3.30;2.97;;;;;;;12.84;100.00;154657.50;5006445;28;20819;-76
2022/10/26 01:10:54;;;;;;;3.63;2.87;;;;;;;12.86;100.00;154662.72;4997755;28;20788;-76
2022/10/26 01:13:20;;;;;;;3.50;2.70;;;;;;;12.90;100.00;154671.78;5012830;28;20963;-76
2022/10/26 01:15:52;;;;;;;3.10;2.40;;;;;;;12.90;100.00;154671.78;4996056;28;20515;-76
2022/10/26 01:18:23;;;;;;;5.10;2.63;;;;;;;12.93;100.00;154679.56;5020119;28;20866;-76
2022/10/26 01:21:28;;;;;;;8.10;2.60;;;;;;;12.92;100.00;154678.25;5012241;28;20441;-76
2022/10/26 01:24:25;;;;;;;4.27;2.83;;;;;;;12.93;100.00;154680.88;5003599;28;20797;-76
2022/10/26 01:27:01;;;;;;;3.63;3.00;;;;;;;12.91;100.00;154674.41;4956981;28;20444;-76
2022/10/26 01:29:50;;;;;;;4.00;2.70;;;;;;;12.91;100.00;154675.69;5013377;28;20460;-75
2022/10/26 01:32:22;;;;;;;4.27;2.50;;;;;;;12.89;100.00;154670.53;5010885;28;20452;-75
2022/10/26 01:34:54;;;;;;;3.53;2.97;;;;;;;12.90;100.00;154671.78;4993576;28;20450;-76
2022/10/26 01:37:25;;;;;;;6.97;3.13;;;;;;;12.91;100.00;154674.41;5028249;28;20541;-76
2022/10/26 01:39:53;;;;;;;5.10;2.60;;;;;;;12.91;100.00;154675.69;5033618;28;20444;-75
2022/10/26 01:42:22;;;;;;;4.97;2.57;;;;;;;12.92;100.00;154677.00;5013812;28;20448;-76
2022/10/26 01:44:52;;;;;;;2.70;2.43;;;;;;;12.92;100.00;154678.25;4998889;28;20460;-76
2022/10/26 01:47:21;;;;;;;2.97;2.27;;;;;;;12.92;100.00;154677.00;5033589;28;20459;-76
2022/10/26 01:49:50;;;;;;;2.43;2.23;;;;;;;12.91;100.00;154675.69;5047724;28;20451;-76
2022/10/26 01:52:18;;;;;;;3.27;2.40;;;;;;;12.92;100.00;154677.00;5029399;28;20814;-76
2022/10/26 01:54:45;;;;;;;3.37;2.00;;;;;;;12.91;100.00;154675.69;5036709;28;20486;-76
2022/10/26 01:57:13;;;;;;;2.90;2.60;;;;;;;12.93;100.00;154679.56;5024263;28;20436;-76
2022/10/26 02:00:05;;;;;;;6.00;3.40;;;;;;;12.88;100.00;154667.91;4994457;28;20445;-76
2022/10/26 02:02:54;;;;;;;6.70;2.93;;;;;;;12.88;100.00;154667.91;5003817;28;20827;-76
2022/10/26 02:05:46;;;;;;;4.47;2.93;;;;;;;12.89;100.00;154669.22;5030947;28;20486;-76
2022/10/26 02:08:28;;;;;;;5.33;3.17;;;;;;;12.88;100.00;154667.91;5002260;28;20449;-76
2022/10/26 02:11:02;;;;;;;4.57;3.20;;;;;;;12.87;100.00;154665.28;5011105;28;20453;-76
2022/10/26 02:13:33;;;;;;;4.73;2.97;;;;;;;12.88;100.00;154667.91;5028471;28;20486;-76
2022/10/26 02:16:05;;;;;;;2.63;2.27;;;;;;;12.86;100.00;154661.44;5014762;28;20437;-75
2022/10/26 02:18:37;;;;;;;3.13;2.30;;;;;;;12.86;100.00;154661.44;5012824;28;20484;-76
2022/10/26 02:21:06;;;;;;;4.00;2.40;;;;;;;12.86;100.00;154662.72;5010558;28;20445;-76
2022/10/26 02:23:36;;;;;;;2.90;2.20;;;;;;;12.88;100.00;154666.59;5016207;28;20558;-76
2022/10/26 02:26:05;;;;;;;3.13;2.80;;;;;;;12.86;100.00;154662.72;5013093;28;20560;-76
2022/10/26 02:28:36;;;;;;;3.67;2.43;;;;;;;12.86;100.00;154662.72;5013542;28;20837;-76
2022/10/26 02:31:04;;;;;;;2.87;2.40;;;;;;;12.84;100.00;154658.81;5012094;28;20789;-75
2022/10/26 02:33:33;;;;;;;7.37;2.60;;;;;;;12.82;100.00;154652.31;5011105;28;20479;-76
2022/10/26 02:36:02;;;;;;;3.90;3.30;;;;;;;12.81;100.00;154649.75;5011286;28;20429;-76
2022/10/26 02:38:30;;;;;;;3.73;2.80;;;;;;;12.82;100.00;154652.31;5012333;28;20441;-76
2022/10/26 02:40:58;;;;;;;3.73;2.87;;;;;;;12.80;100.00;154647.16;4992483;28;20448;-76
2022/10/26 02:43:25;;;;;;;4.43;3.10;;;;;;;12.82;100.00;154652.31;5012801;28;20511;-76
2022/10/26 02:45:55;;;;;;;3.40;3.00;;;;;;;12.82;100.00;154652.31;5013408;28;20435;-76
2022/10/26 02:48:22;;;;;;;4.30;2.83;;;;;;;12.79;100.00;154644.53;5012990;28;20437;-75
2022/10/26 02:50:54;;;;;;;4.33;3.20;;;;;;;12.76;100.00;154636.81;4975798;28;20467;-76
2022/10/26 02:53:25;;;;;;;6.37;3.50;;;;;;;12.77;100.00;154639.38;4993089;28;20560;-76
2022/10/26 02:55:52;;;;;;;7.77;4.20;;;;;;;12.70;100.00;154621.22;4991336;28;20804;-76
2022/10/26 02:58:22;;;;;;;6.50;3.70;;;;;;;12.68;100.00;154616.03;5007067;28;20606;-76
2022/10/26 03:00:49;;;;;;;3.87;3.57;;;;;;;12.65;100.00;154609.56;5015361;28;20536;-76
2022/10/26 03:03:16;;;;;;;7.63;3.50;;;;;;;12.65;100.00;154609.56;5010722;28;20576;-76
2022/10/26 03:05:43;;;;;;;4.30;3.50;;;;;;;12.63;100.00;154603.03;5010911;28;20484;-76
2022/10/26 03:08:11;;;;;;;4.13;3.50;;;;;;;12.63;100.00;154603.03;5001838;28;20815;-76
2022/10/26 03:10:41;;;;;;;5.30;3.50;;;;;;;12.64;100.00;154605.66;4994588;28;20497;-76
2022/10/26 03:13:08;;;;;;;4.20;3.60;;;;;;;12.65;100.00;154608.25;5010545;28;20448;-76
2022/10/26 03:15:34;;;;;;;3.43;3.03;;;;;;;12.65;100.00;154608.25;5015580;28;20536;-76
2022/10/26 03:18:01;;;;;;;5.20;3.83;;;;;;;12.69;100.00;154618.63;5016727;28;20462;-76
2022/10/26 03:20:28;;;;;;;4.43;3.40;;;;;;;12.70;100.00;154621.22;5021633;28;20444;-75
2022/10/26 03:22:55;;;;;;;5.00;3.33;;;;;;;12.69;100.00;154618.63;5011952;28;20492;-76
2022/10/26 03:25:23;;;;;;;4.97;3.60;;;;;;;12.70;100.00;154621.22;5013702;28;20457;-76
2022/10/26 03:27:56;;;;;;;4.50;3.13;;;;;;;12.69;100.00;154618.63;5036314;28;20423;-76
2022/10/26 03:30:23;;;;;;;5.50;3.83;;;;;;;12.71;100.00;154623.78;4992533;28;20457;-76
2022/10/26 03:32:50;;;;;;;4.67;3.43;;;;;;;12.73;100.00;154629.00;5015386;28;20460;-76
2022/10/26 03:35:16;;;;;;;6.03;3.30;;;;;;;12.76;100.00;154636.81;5016285;28;20463;-76
2022/10/26 03:37:43;;;;;;;5.73;3.00;;;;;;;12.78;100.00;154641.97;4997557;28;20456;-76
2022/10/26 03:40:10;;;;;;;3.67;3.27;;;;;;;12.83;100.00;154654.94;5014613;28;20436;-76
2022/10/26 03:42:39;;;;;;;5.70;3.17;;;;;;;12.83;100.00;154654.94;5015448;28;20432;-76
2022/10/26 03:45:07;;;;;;;4.10;3.40;;;;;;;12.90;100.00;154673.09;5011127;28;20489;-76
2022/10/26 03:47:34;;;;;;;4.27;3.33;;;;;;;12.95;100.00;154686.06;5025669;28;20931;-76
2022/10/26 03:50:01;;;;;;;4.40;3.13;;;;;;;12.97;100.00;154691.28;5031388;28;20442;-76
2022/10/26 03:52:27;;;;;;;3.17;2.87;;;;;;;12.97;100.00;154691.28;5021736;28;20461;-76
2022/10/26 03:54:54;;;;;;;3.30;2.50;;;;;;;12.98;100.00;154693.84;5022038;28;20444;-76
2022/10/26 03:57:21;;;;;;;5.30;3.30;;;;;;;12.96;100.00;154688.66;5011254;28;20457;-76
2022/10/26 03:59:49;;;;;;;5.43;2.87;;;;;;;12.98;100.00;154693.84;4996845;28;20437;-76
2022/10/26 04:02:16;;;;;;;3.30;3.00;;;;;;;13.04;100.00;154709.44;5020465;28;20451;-76
2022/10/26 04:04:42;;;;;;;3.97;2.50;;;;;;;13.04;100.00;154709.44;5019865;28;20546;-76
2022/10/26 04:07:09;;;;;;;3.13;2.60;;;;;;;13.04;100.00;154708.13;5015558;28;20424;-76
2022/10/26 04:09:36;;;;;;;4.50;2.83;;;;;;;13.04;100.00;154709.44;4997281;28;20440;-76
2022/10/26 04:12:02;;;;;;;3.83;3.00;;;;;;;13.05;100.00;154712.00;4986963;28;20952;-76
2022/10/26 04:14:29;;;;;;;4.50;3.10;;;;;;;13.07;100.00;154717.25;4976427;28;20504;-76
2022/10/26 04:16:57;;;;;;;5.73;3.20;;;;;;;13.08;100.00;154718.56;4994974;28;20438;-76
2022/10/26 04:19:24;;;;;;;2.97;2.67;;;;;;;13.05;100.00;154712.00;4995292;28;20548;-76
2022/10/26 04:21:51;;;;;;;5.03;2.50;;;;;;;13.06;100.00;154714.59;4989158;28;20441;-76
2022/10/26 04:24:18;;;;;;;2.93;2.63;;;;;;;13.05;100.00;154712.00;4994360;28;20470;-76
2022/10/26 04:26:45;;;;;;;4.83;3.80;;;;;;;13.04;100.00;154709.44;4992338;28;20485;-76
2022/10/26 04:29:12;;;;;;;4.90;3.23;;;;;;;13.05;100.00;154712.00;4998458;28;20445;-76
2022/10/26 04:31:40;;;;;;;6.80;3.80;;;;;;;13.05;100.00;154710.72;4999552;28;20701;-76
2022/10/26 04:34:08;;;;;;;5.00;2.90;;;;;;;13.05;100.00;154710.72;4994485;28;20464;-76
2022/10/26 04:36:34;;;;;;;4.80;3.23;;;;;;;13.01;100.00;154700.31;4980971;28;20545;-76
2022/10/26 04:39:01;;;;;;;4.60;3.70;;;;;;;13.00;100.00;154699.03;4996302;28;20976;-76
2022/10/26 04:41:28;;;;;;;4.03;3.63;;;;;;;12.97;100.00;154691.28;4977319;28;20486;-76
2022/10/26 04:43:55;;;;;;;9.93;4.00;;;;;;;12.96;100.00;154688.66;4977267;28;20476;-76
2022/10/26 04:46:26;;;;;;;8.63;3.80;;;;;;;12.96;100.00;154688.66;4994494;28;20528;-76
2022/10/26 04:56:20;;;;;;;8.10;3.50;;;;;;;12.96;100.00;154688.66;5006833;28;20448;-76
2022/10/26 04:58:49;;;;;;;4.20;3.43;;;;;;;12.95;100.00;154686.06;5009581;28;20463;-76
2022/10/26 05:01:16;;;;;;;5.10;4.33;;;;;;;12.94;100.00;154683.50;4992895;28;20456;-76
2022/10/26 05:03:43;;;;;;;6.40;3.90;;;;;;;12.92;100.00;154678.25;4975506;28;20473;-76
2022/10/26 05:06:11;;;;;;;5.63;3.50;;;;;;;12.89;100.00;154670.53;5007470;28;20472;-76
2022/10/26 05:08:40;;;;;;;7.80;3.60;;;;;;;12.93;100.00;154680.88;5013389;28;20480;-76
2022/10/26 05:11:06;;;;;;;4.37;3.20;;;;;;;12.91;100.00;154675.69;4994983;28;20462;-76
2022/10/26 05:13:34;;;;;;;4.90;3.30;;;;;;;12.94;100.00;154683.50;5013817;28;20536;-76
2022/10/26 05:16:01;;;;;;;4.10;3.10;;;;;;;12.97;100.00;154691.28;5011880;28;20441;-76
2022/10/26 05:18:28;;;;;;;5.30;3.20;;;;;;;12.97;100.00;154691.28;5012645;28;20491;-76
2022/10/26 05:20:55;;;;;;;3.50;2.83;;;;;;;12.97;100.00;154691.28;4977800;28;20455;-76
2022/10/26 05:23:22;;;;;;;4.10;3.43;;;;;;;12.98;100.00;154693.84;5013393;28;20535;-76
2022/10/26 05:25:49;;;;;;;4.13;2.83;;;;;;;12.98;100.00;154693.84;5012978;28;20476;-76
2022/10/26 05:28:17;;;;;;;4.10;3.70;;;;;;;12.99;100.00;154696.47;5013442;28;20932;-76
2022/10/26 05:30:46;;;;;;;7.10;3.20;;;;;;;13.05;100.00;154712.00;5011226;28;20484;-88
2022/10/26 05:33:13;;;;;;;5.70;3.20;;;;;;;13.06;100.00;154713.28;5012098;28;20455;-89
2022/10/26 05:35:40;;;;;;;4.10;3.23;;;;;;;13.07;100.00;154717.25;4995214;28;20658;-89
2022/10/26 05:38:09;;;;;;;4.00;3.17;;;;;;;13.10;100.00;154723.75;5012722;28;20531;-88
2022/10/26 05:40:36;;;;;;;5.67;2.97;;;;;;;13.09;100.00;154721.13;5013204;28;20437;-89
2022/10/26 05:43:03;;;;;;;3.57;3.10;;;;;;;13.10;100.00;154725.06;4996065;28;20451;-88
2022/10/26 05:45:30;;;;;;;4.90;3.20;;;;;;;13.11;100.00;154727.63;5013159;28;20514;-88
2022/10/26 05:47:58;;;;;;;3.53;2.40;;;;;;;13.11;100.00;154727.63;5013550;28;20468;-88
2022/10/26 05:50:24;;;;;;;4.30;3.57;;;;;;;13.15;100.00;154738.03;5019230;28;20451;-88
2022/10/26 05:52:51;;;;;;;2.93;2.47;;;;;;;13.17;100.00;154743.22;5021976;28;20441;-88
2022/10/26 05:55:19;;;;;;;3.17;2.50;;;;;;;13.17;100.00;154743.22;5019500;28;20467;-89
2022/10/26 05:57:46;;;;;;;4.03;3.07;;;;;;;13.19;100.00;154748.38;5008684;28;20453;-88
2022/10/26 06:00:17;;;;;;;8.40;2.87;;;;;;;13.20;100.00;154751.00;5006999;28;20940;-88
2022/10/26 06:02:53;;;;;;;4.40;3.57;;;;;;;13.21;100.00;154752.31;5010044;28;20480;-89
2022/10/26 06:05:24;;;;;;;4.53;3.00;;;;;;;13.17;100.00;154743.22;5012351;28;20485;-88
2022/10/26 06:07:51;;;;;;;3.77;2.93;;;;;;;13.17;100.00;154743.22;4982710;28;20476;-89
2022/10/26 06:10:21;;;;;;;4.20;3.00;;;;;;;13.15;100.00;154738.03;4989451;28;20457;-89
2022/10/26 06:12:48;;;;;;;4.03;2.80;;;;;;;13.19;100.00;154748.38;4989674;28;20453;-89
2022/10/26 06:15:18;;;;;;;4.77;3.00;;;;;;;13.19;100.00;154748.38;4990924;28;20956;-88
2022/10/26 06:17:52;;;;;;;4.73;3.13;;;;;;;13.20;100.00;154749.69;4991812;28;20540;-88
2022/10/26 06:20:31;;;;;;;4.87;3.13;;;;;;;13.21;100.00;154753.56;4990211;28;20830;-88
2022/10/26 06:23:08;;;;;;;3.87;3.17;;;;;;;13.22;100.00;154754.88;4988767;28;20476;-88
2022/10/26 06:25:44;;;;;;;4.90;3.00;;;;;;;13.23;100.00;154757.47;4991616;28;20477;-88
2022/10/26 06:28:22;;;;;;;5.67;2.93;;;;;;;13.21;100.00;154753.56;4992191;28;20437;-88
2022/10/26 06:30:49;;;;;;;4.10;2.87;;;;;;;13.24;100.00;154761.34;4989096;28;20489;-76
2022/10/26 06:33:16;;;;;;;8.33;3.23;;;;;;;13.26;100.00;154765.28;4989112;28;20965;-76
2022/10/26 06:35:48;;;;;;;3.90;2.60;;;;;;;13.27;100.00;154769.13;4991382;28;20441;-76
2022/10/26 06:38:17;;;;;;;3.23;2.90;;;;;;;13.28;100.00;154771.75;4988484;28;20460;-76
2022/10/26 06:40:46;;;;;;;3.37;2.73;;;;;;;13.33;100.00;154784.72;4988199;28;20449;-75
2022/10/26 06:43:19;;;;;;;3.20;2.70;;;;;;;13.33;100.00;154784.72;4989895;28;20442;-76
2022/10/26 06:45:50;;;;;;;5.50;2.60;;;;;;;13.39;100.00;154800.31;4991548;28;20476;-76
2022/10/26 06:48:19;;;;;;;3.77;2.77;;;;;;;13.35;100.00;154789.91;5020511;28;20456;-76
2022/10/26 06:50:51;;;;;;;4.63;3.07;;;;;;;13.35;100.00;154789.91;4990678;28;20461;-76
2022/10/26 06:53:24;;;;;;;3.03;2.67;;;;;;;13.36;100.00;154791.22;4979621;28;20468;-76
2022/10/26 06:55:51;;;;;;;3.23;2.60;;;;;;;13.35;100.00;154789.91;4995569;28;20422;-76
2022/10/26 06:58:20;;;;;;;3.63;2.70;;;;;;;13.36;100.00;154792.53;5005807;28;20786;-76
2022/10/26 07:00:48;;;;;;;3.20;2.90;;;;;;;13.43;100.00;154809.38;4985501;28;20468;-76
2022/10/26 07:03:15;;;;;;;6.23;2.87;;;;;;;13.45;100.00;154813.28;5002217;28;20452;-76
2022/10/26 07:05:41;;;;;;;4.43;2.53;;;;;;;13.48;100.00;154821.03;5010633;28;20480;-76
2022/10/26 07:08:28;;;;;;;6.43;3.10;;;;;;;13.50;100.00;154826.25;5015233;28;20803;-80
2022/10/26 07:11:13;;;;;;;8.83;3.17;;;;;;;13.56;100.00;154841.78;4996044;28;20811;-76
2022/10/26 07:13:59;;;;;;;13.97;4.90;;;;;;;13.63;100.00;154860.00;4991489;28;20585;-76
2022/10/26 07:16:44;;;;;;;14.07;4.60;;;;;;;13.69;100.00;154876.84;4995623;28;20452;-76
2022/10/26 07:19:30;;;;;;;7.90;3.07;;;;;;;13.66;100.00;154869.06;4999209;28;20885;-76
2022/10/26 07:22:15;;;;;;;5.27;2.67;;;;;;;13.69;100.00;154876.84;4994671;28;20460;-76
2022/10/26 07:25:02;;;;;;;3.80;2.60;;;;;;;13.76;100.00;154893.75;5010581;28;20483;-76
2022/10/26 07:27:47;;;;;;;4.70;2.60;;;;;;;13.79;100.00;154901.53;5015834;28;20824;-76
2022/10/26 07:30:33;;;;;;;3.47;2.80;;;;;;;13.85;100.00;154917.06;4998660;28;20456;-75
2022/10/26 07:33:19;;;;;;;5.47;2.53;;;;;;;13.90;100.00;154931.38;4995648;28;20495;-75
2022/10/26 07:36:07;;;;;;;4.27;2.83;;;;;;;13.93;100.00;154937.84;4996603;28;20934;-76
2022/10/26 07:38:53;;;;;;;2.87;2.57;;;;;;;14.04;100.00;154966.41;4996457;28;21135;-76
2022/10/26 07:41:39;;;;;;;3.07;2.50;;;;;;;14.00;100.00;154957.31;4994170;28;20464;-76
2022/10/26 07:44:25;;;;;;;3.97;3.20;;;;;;;14.02;100.00;154962.56;4977382;28;20985;-76
2022/10/26 07:47:10;;;;;;;3.60;2.97;;;;;;;14.03;100.00;154963.84;4990531;28;21051;-76
2022/10/26 07:49:55;;;;;;;3.60;2.83;;;;;;;14.12;100.00;154987.19;4996044;28;20884;-76
2022/10/26 07:52:41;;;;;;;6.40;3.10;;;;;;;14.18;100.00;155002.78;4995218;28;20805;-76
2022/10/26 07:55:27;;;;;;;6.20;2.60;;;;;;;14.25;100.00;155019.66;4991943;28;20441;-76
2022/10/26 07:58:15;;;;;;;3.20;2.60;;;;;;;14.26;100.00;155022.25;4996007;28;20494;-76
2022/10/26 08:00:42;;;;;;;3.63;2.73;;;;;;;14.22;100.00;155013.16;5002730;28;20471;-76
2022/10/26 08:03:08;;;;;;;4.70;3.33;;;;;;;14.27;100.00;155024.88;4990349;28;20445;-76
2022/10/26 08:05:35;;;;;;;4.60;3.70;;;;;;;14.38;100.00;155054.75;4984865;28;20677;-76
2022/10/26 08:08:02;;;;;;;3.43;2.90;;;;;;;14.44;100.00;155069.06;5012866;28;20445;-76
2022/10/26 08:10:28;;;;;;;3.40;2.67;;;;;;;14.44;100.00;155070.38;5023212;28;20452;-76
2022/10/26 08:12:55;;;;;;;3.47;3.00;;;;;;;14.44;100.00;155070.38;5012037;28;20456;-76
2022/10/26 08:15:26;;;;;;;3.93;2.47;;;;;;;14.47;100.00;155078.16;5013175;28;20531;-76
2022/10/26 08:17:52;;;;;;;3.90;2.73;;;;;;;14.47;100.00;155076.84;5006020;28;20466;-76
2022/10/26 08:20:20;;;;;;;4.60;3.17;;;;;;;14.52;100.00;155089.84;5008865;28;20453;-76
2022/10/26 08:22:46;;;;;;;3.70;3.10;;;;;;;14.48;100.00;155080.72;5011763;28;20538;-76
2022/10/26 08:25:13;;;;;;;4.90;3.63;;;;;;;14.52;100.00;155091.16;4997568;28;20472;-76
2022/10/26 08:27:40;;;;;;;3.67;3.07;;;;;;;14.55;100.00;155098.94;5023965;28;20474;-75
2022/10/26 08:30:07;;;;;;;4.10;2.93;;;;;;;14.63;100.00;155119.72;5017370;28;20539;-75
2022/10/26 08:32:35;;;;;;;3.10;2.80;;;;;;;14.63;100.00;155118.41;5001473;28;20806;-76
2022/10/26 08:35:02;;;;;;;3.93;3.17;;;;;;;14.66;100.00;155126.22;5000971;28;20440;-76
2022/10/26 08:37:29;;;;;;;4.70;3.40;;;;;;;14.70;100.00;155136.59;5010245;28;21043;-76
2022/10/26 08:39:55;;;;;;;4.03;2.90;;;;;;;14.72;100.00;155140.50;5013984;28;20519;-76
2022/10/26 08:42:25;;;;;;;5.80;3.50;;;;;;;14.72;100.00;155140.50;4996869;28;20482;-76
2022/10/26 08:44:57;;;;;;;4.30;3.30;;;;;;;14.75;100.00;155148.25;5015571;28;20556;-76
2022/10/26 08:47:28;;;;;;;6.23;3.30;;;;;;;14.74;100.00;155147.00;5014988;28;20491;-76
2022/10/26 08:50:00;;;;;;;4.00;2.97;;;;;;;14.81;100.00;155163.88;5011332;28;20547;-76
2022/10/26 08:52:30;;;;;;;4.47;3.40;;;;;;;14.76;100.00;155152.19;5011869;28;20479;-76
2022/10/26 08:54:59;;;;;;;5.60;3.10;;;;;;;14.81;100.00;155163.88;5014153;28;20543;-76
2022/10/26 08:57:27;;;;;;;3.30;3.00;;;;;;;14.76;100.00;155150.88;5014225;28;20491;-76
2022/10/26 08:59:58;;;;;;;3.67;3.10;;;;;;;14.74;100.00;155147.00;5012490;28;20468;-76
2022/10/26 09:02:25;;;;;;;6.00;3.50;;;;;;;14.79;100.00;155160.00;5012522;28;21045;-76
2022/10/26 09:04:52;;;;;;;4.17;3.00;;;;;;;14.83;100.00;155169.06;5021140;28;20468;-76
2022/10/26 09:07:37;;;;;;;4.60;2.90;;;;;;;14.89;100.00;155184.66;4994865;28;20489;-76
2022/10/26 09:10:12;;;;;;;5.70;2.90;;;;;;;14.99;100.00;155210.63;4993091;28;20454;-76
2022/10/26 09:12:45;;;;;;;8.57;3.43;;;;;;;15.10;100.00;155239.22;4996603;28;20471;-76
2022/10/26 09:15:16;;;;;;;3.40;3.00;;;;;;;15.19;100.00;155262.63;4993331;28;20461;-76
2022/10/26 09:17:48;;;;;;;4.53;3.10;;;;;;;15.33;100.00;155298.97;4991494;28;20449;-76
2022/10/26 09:20:41;;;;;;;5.50;2.97;;;;;;;15.42;100.00;155321.09;4987475;28;20786;-78
2022/10/26 09:23:19;;;;;;;4.03;2.80;;;;;;;15.56;100.00;155357.56;4985777;28;20463;-78
2022/10/26 09:25:49;;;;;;;4.40;2.87;;;;;;;15.65;100.00;155382.22;4986067;28;21274;-77
2022/10/26 09:28:17;;;;;;;3.80;3.37;;;;;;;15.69;100.00;155392.66;4993510;28;20452;-77
2022/10/26 09:30:45;;;;;;;5.40;3.40;;;;;;;15.81;100.00;155422.53;5001480;28;20449;-78
2022/10/26 09:33:15;;;;;;;3.93;2.60;;;;;;;15.89;100.00;155442.00;5002045;28;20822;-76
2022/10/26 09:35:43;;;;;;;5.43;3.40;;;;;;;15.99;100.00;155468.06;4990146;28;20459;-77
2022/10/26 09:38:15;;;;;;;5.10;3.83;;;;;;;16.10;100.00;155496.63;5000733;28;20963;-77
2022/10/26 09:40:48;;;;;;;6.30;3.57;;;;;;;16.22;100.00;155529.16;4978117;28;20461;-78
2022/10/26 09:43:18;;;;;;;5.57;3.47;;;;;;;16.33;100.00;155556.47;4987721;28;20948;-78
2022/10/26 09:45:48;;;;;;;4.00;2.90;;;;;;;16.40;100.00;155575.97;4991432;28;20479;-77
2022/10/26 09:48:21;;;;;;;4.40;3.07;;;;;;;16.53;100.00;155608.53;4993646;28;20808;-78
2022/10/26 09:50:50;;;;;;;6.10;2.97;;;;;;;16.61;100.00;155628.03;4992099;28;20445;-78
2022/10/26 09:53:18;;;;;;;5.17;3.20;;;;;;;16.65;100.00;155639.78;4992211;28;20877;-77
2022/10/26 09:55:47;;;;;;;5.03;2.90;;;;;;;16.66;100.00;155641.03;4989772;28;20504;-77
2022/10/26 09:58:17;;;;;;;4.43;2.83;;;;;;;16.57;100.00;155618.97;4977088;28;20449;-78
2022/10/26 10:00:47;;;;;;;4.43;3.17;;;;;;;16.56;100.00;155615.03;5005681;28;20548;-78
2022/10/26 10:03:19;;;;;;;6.90;3.20;;;;;;;16.63;100.00;155634.53;4991606;28;20450;-77
2022/10/26 10:05:47;;;;;;;3.20;2.40;;;;;;;16.67;100.00;155644.97;5002751;28;20871;-78
2022/10/26 10:08:20;;;;;;;5.23;2.70;;;;;;;16.76;100.00;155667.09;5022076;28;20487;-78
2022/10/26 10:10:58;;;;;;;8.20;3.40;;;;;;;16.94;100.00;155713.94;5012224;28;20928;-77
2022/10/26 10:13:27;;;;;;;4.00;2.80;;;;;;;16.99;100.00;155726.94;4993947;28;20457;-77
2022/10/26 10:15:55;;;;;;;4.30;3.07;;;;;;;16.95;100.00;155716.50;5010302;28;20452;-77
2022/10/26 10:18:23;;;;;;;4.50;3.00;;;;;;;17.01;100.00;155733.44;5000474;28;20433;-77
2022/10/26 10:20:52;;;;;;;5.40;2.97;;;;;;;17.02;100.00;155734.75;5011985;28;20444;-76
2022/10/26 10:23:31;;;;;;;5.50;3.03;;;;;;;17.01;100.00;155733.44;5011362;28;20860;-79
2022/10/26 10:25:59;;;;;;;3.80;2.60;;;;;;;17.04;100.00;155741.25;5027837;28;20483;-78
2022/10/26 10:28:27;;;;;;;4.40;3.00;;;;;;;17.05;100.00;155743.81;5020802;28;20451;-78
2022/10/26 10:30:56;;;;;;;4.80;2.87;;;;;;;17.19;100.00;155777.66;4995040;28;20539;-78
2022/10/26 10:33:23;;;;;;;7.13;3.40;;;;;;;17.18;100.00;155776.41;5014289;28;20479;-78
2022/10/26 10:35:51;;;;;;;6.20;2.90;;;;;;;17.26;100.00;155795.91;5016789;28;20878;-78
2022/10/26 10:38:19;;;;;;;6.93;2.93;;;;;;;17.26;100.00;155795.91;5011982;28;20440;-78
2022/10/26 10:40:53;;;;;;;3.60;2.43;;;;;;;17.40;100.00;155832.31;4994210;28;20489;-76
2022/10/26 10:43:20;;;;;;;6.87;2.63;;;;;;;17.46;100.00;155847.94;5005603;28;20875;-77
2022/10/26 10:45:48;;;;;;;6.30;3.00;;;;;;;17.58;100.00;155879.22;5013964;28;20560;-78
2022/10/26 10:48:17;;;;;;;5.23;3.13;;;;;;;17.66;100.00;155900.06;4991670;28;20452;-76
2022/10/26 10:50:55;;;;;;;4.60;2.70;;;;;;;17.67;100.00;155902.69;5005387;28;20781;-77
2022/10/26 10:53:26;;;;;;;4.03;2.70;;;;;;;17.68;99.12;155905.28;5010543;28;20453;-77
2022/10/26 10:56:02;;;;;;;6.40;2.63;;;;;;;17.67;99.58;155901.38;4994012;28;20891;-78
2022/10/26 10:58:35;;;;;;;3.90;2.20;;;;;;;17.72;100.00;155914.38;5009580;28;20609;-78
2022/10/26 11:01:10;;;;;;;11.57;3.27;;;;;;;17.88;99.31;155957.34;5007655;28;20547;-78
2022/10/26 11:03:47;;;;;;;4.10;2.77;;;;;;;17.86;98.63;155952.16;5010161;28;20440;-78
2022/10/26 11:06:19;;;;;;;4.60;2.47;;;;;;;17.87;98.76;155954.72;4994013;28;20990;-78
2022/10/26 11:08:50;;;;;;;5.83;3.43;;;;;;;17.92;99.78;155966.50;4994555;28;20637;-78
2022/10/26 11:11:25;;;;;;;3.83;2.53;;;;;;;17.92;99.41;155967.78;4996554;28;20820;-92
2022/10/26 11:13:53;;;;;;;4.40;2.60;;;;;;;18.00;97.48;155987.31;5009835;28;20448;-91
2022/10/26 11:16:24;;;;;;;10.70;3.97;;;;;;;18.05;98.45;156001.66;5010538;28;20443;-91
2022/10/26 11:18:54;;;;;;;4.63;2.60;;;;;;;18.21;95.83;156043.28;5019755;28;20535;-89
2022/10/26 11:21:25;;;;;;;4.87;2.57;;;;;;;18.30;96.59;156064.13;5009999;28;20431;-89
2022/10/26 11:23:56;;;;;;;6.60;3.40;;;;;;;18.29;96.30;156062.84;5007602;28;20488;-89
2022/10/26 11:26:30;;;;;;;4.47;2.60;;;;;;;18.29;95.96;156061.53;5018046;28;20504;-91
2022/10/26 11:28:59;;;;;;;11.40;2.80;;;;;;;18.31;96.12;156066.75;5021824;28;20474;-89
2022/10/26 11:31:31;;;;;;;6.40;2.50;;;;;;;18.29;95.88;156061.53;4986687;28;20532;-89
2022/10/26 11:34:17;;;;;;;3.80;2.30;;;;;;;18.33;95.58;156071.94;4997987;28;20530;-89
2022/10/26 11:36:48;;;;;;;7.77;2.30;;;;;;;18.39;95.35;156087.59;5006254;28;20443;-89
2022/10/26 11:39:20;;;;;;;6.23;2.97;;;;;;;18.45;95.20;156104.53;5014678;28;20456;-88
2022/10/26 11:41:51;;;;;;;7.70;2.77;;;;;;;18.50;95.50;156116.31;5013068;28;20486;-90